This is the latest recevied weather packets stored in our database for station/object K9CMP-13. If no packets are shown the sender has not sent any weather packets the latest 10 day(s).
| Time | Temp. | Humidity | Pressure | Rain* | Wind** | Luminosity | Snow |
|---|---|---|---|---|---|---|---|
| 1787698142 | 24.44° C | 68% | 1014.9 hPa | 0 mm | - | - | - |
| 1787696642 | 25° C | 64% | 1014.9 hPa | 0 mm | - | - | - |
| 1787695742 | 25.56° C | 66% | 1014.9 hPa | 0 mm | - | - | - |
| 1787694842 | 25.56° C | 65% | 1014.9 hPa | 0 mm | - | - | - |
| 1787694242 | 26.11° C | 63% | 1014.9 hPa | 0 mm | - | - | - |
| 1787693342 | 25° C | 65% | 1015.2 hPa | 0 mm | - | - | - |
| 1787691842 | 25.56° C | 65% | 1015.2 hPa | 0 mm | - | - | - |
| 1787690941 | 26.11° C | 64% | 1015.6 hPa | 0 mm | - | - | - |
| 1787687341 | 25° C | 68% | 1016.6 hPa | 0 mm | - | - | - |
| 1787686441 | 25.56° C | 69% | 1016.9 hPa | 0 mm | - | - | - |
| 1787685542 | 25° C | 70% | 1016.9 hPa | 0 mm | - | - | - |
| 1787684642 | 25° C | 69% | 1016.9 hPa | 0 mm | - | - | - |
| 1787684041 | 25° C | 71% | 1016.9 hPa | 0 mm | - | - | - |
| 1787683141 | 25° C | 71% | 1016.9 hPa | 0 mm | - | - | - |
| 1787682242 | 24.44° C | 73% | 1016.9 hPa | 0 mm | - | - | - |
| 1787678942 | 23.33° C | 76% | 1018.3 hPa | 0 mm | - | - | - |
| 1787678042 | 23.33° C | 75% | 1018.3 hPa | 0 mm | - | - | - |
| 1787677142 | 23.89° C | 76% | 1018.3 hPa | 0 mm | - | - | - |
| 1787675642 | 23.33° C | 75% | 1018.6 hPa | 0 mm | - | - | - |
| 1787674742 | 22.78° C | 79% | 1019 hPa | 0 mm | - | - | - |
| 1787673242 | 21.11° C | 85% | 1019.3 hPa | 0 mm | - | - | - |
| 1787672342 | 20.56° C | 85% | 1019.6 hPa | 0 mm | - | - | - |
| 1787671742 | 20.56° C | 87% | 1019.6 hPa | 0 mm | - | - | - |
| 1787669942 | 18.33° C | 91% | 1019.6 hPa | 0 mm | - | - | - |
| 1787669042 | 17.22° C | 93% | 1019.6 hPa | 0 mm | - | - | - |
* Rain latest hour (hover to see other rain measurements)
** Current wind speed in m/s (hover to see current wind gust speed)